sensor_id;sensor_type;location;lat;lon;timestamp;temperature;humidity
16313;DHT22;8265;52.622;13.296;2023-01-04T00:05:01;2.40;95.10
16313;DHT22;8265;52.622;13.296;2023-01-04T00:10:22;2.20;95.90
16313;DHT22;8265;52.622;13.296;2023-01-04T00:15:43;2.10;96.30
16313;DHT22;8265;52.622;13.296;2023-01-04T00:21:08;2.00;97.10
16313;DHT22;8265;52.622;13.296;2023-01-04T00:26:27;1.80;97.90
16313;DHT22;8265;52.622;13.296;2023-01-04T00:31:47;1.80;98.20
16313;DHT22;8265;52.622;13.296;2023-01-04T00:37:08;1.90;97.70
16313;DHT22;8265;52.622;13.296;2023-01-04T00:42:28;1.80;98.00
16313;DHT22;8265;52.622;13.296;2023-01-04T00:47:49;2.70;98.10
16313;DHT22;8265;52.622;13.296;2023-01-04T00:53:11;2.40;96.10
16313;DHT22;8265;52.622;13.296;2023-01-04T00:58:31;2.20;97.60
16313;DHT22;8265;52.622;13.296;2023-01-04T01:03:53;2.20;98.10
16313;DHT22;8265;52.622;13.296;2023-01-04T01:09:14;2.30;98.40
16313;DHT22;8265;52.622;13.296;2023-01-04T01:14:34;2.40;98.30
16313;DHT22;8265;52.622;13.296;2023-01-04T01:19:55;2.50;98.00
16313;DHT22;8265;52.622;13.296;2023-01-04T01:25:16;2.60;97.60
16313;DHT22;8265;52.622;13.296;2023-01-04T01:30:40;2.70;97.20
16313;DHT22;8265;52.622;13.296;2023-01-04T01:36:01;2.80;96.70
16313;DHT22;8265;52.622;13.296;2023-01-04T01:41:26;2.90;96.20
16313;DHT22;8265;52.622;13.296;2023-01-04T01:46:44;2.80;96.40
16313;DHT22;8265;52.622;13.296;2023-01-04T01:52:03;2.70;96.60
16313;DHT22;8265;52.622;13.296;2023-01-04T01:57:22;2.60;96.70
16313;DHT22;8265;52.622;13.296;2023-01-04T02:02:56;2.50;96.60
16313;DHT22;8265;52.622;13.296;2023-01-04T02:08:04;2.50;96.80
16313;DHT22;8265;52.622;13.296;2023-01-04T02:13:26;2.50;97.00
16313;DHT22;8265;52.622;13.296;2023-01-04T02:18:54;2.50;97.00
16313;DHT22;8265;52.622;13.296;2023-01-04T02:34:58;2.50;96.00
16313;DHT22;8265;52.622;13.296;2023-01-04T02:45:33;2.40;96.80
16313;DHT22;8265;52.622;13.296;2023-01-04T02:50:53;2.30;96.60
16313;DHT22;8265;52.622;13.296;2023-01-04T02:56:17;2.30;96.60
16313;DHT22;8265;52.622;13.296;2023-01-04T03:07:03;2.50;95.10
16313;DHT22;8265;52.622;13.296;2023-01-04T03:12:17;2.60;94.70
16313;DHT22;8265;52.622;13.296;2023-01-04T03:17:39;2.70;94.50
16313;DHT22;8265;52.622;13.296;2023-01-04T03:23:04;2.60;94.30
16313;DHT22;8265;52.622;13.296;2023-01-04T03:28:19;2.70;94.20
16313;DHT22;8265;52.622;13.296;2023-01-04T03:33:39;2.60;94.20
16313;DHT22;8265;52.622;13.296;2023-01-04T03:39:03;2.70;94.00
16313;DHT22;8265;52.622;13.296;2023-01-04T03:44:29;2.60;94.00
16313;DHT22;8265;52.622;13.296;2023-01-04T03:49:44;2.50;94.40
16313;DHT22;8265;52.622;13.296;2023-01-04T03:55:03;2.60;94.40
16313;DHT22;8265;52.622;13.296;2023-01-04T04:00:24;2.50;94.40
16313;DHT22;8265;52.622;13.296;2023-01-04T04:05:45;2.60;94.50
16313;DHT22;8265;52.622;13.296;2023-01-04T04:11:06;2.60;94.30
16313;DHT22;8265;52.622;13.296;2023-01-04T04:16:27;2.50;94.40
16313;DHT22;8265;52.622;13.296;2023-01-04T04:21:48;2.60;94.60
16313;DHT22;8265;52.622;13.296;2023-01-04T04:27:09;2.70;94.30
16313;DHT22;8265;52.622;13.296;2023-01-04T04:32:30;2.70;94.10
16313;DHT22;8265;52.622;13.296;2023-01-04T04:37:51;2.80;94.00
16313;DHT22;8265;52.622;13.296;2023-01-04T04:43:12;2.80;93.90
16313;DHT22;8265;52.622;13.296;2023-01-04T04:48:33;2.90;93.60
16313;DHT22;8265;52.622;13.296;2023-01-04T04:53:54;3.00;93.50
16313;DHT22;8265;52.622;13.296;2023-01-04T04:59:15;3.10;92.80
16313;DHT22;8265;52.622;13.296;2023-01-04T05:04:36;3.20;92.50
16313;DHT22;8265;52.622;13.296;2023-01-04T05:09:57;3.30;92.60
16313;DHT22;8265;52.622;13.296;2023-01-04T05:15:18;3.50;91.90
16313;DHT22;8265;52.622;13.296;2023-01-04T05:20:39;3.50;91.60
16313;DHT22;8265;52.622;13.296;2023-01-04T05:26:00;3.60;91.20
16313;DHT22;8265;52.622;13.296;2023-01-04T05:31:21;3.70;90.90
16313;DHT22;8265;52.622;13.296;2023-01-04T05:36:42;3.70;90.90
16313;DHT22;8265;52.622;13.296;2023-01-04T05:42:03;3.70;90.80
16313;DHT22;8265;52.622;13.296;2023-01-04T05:47:24;3.80;90.60
16313;DHT22;8265;52.622;13.296;2023-01-04T05:52:45;3.90;90.30
16313;DHT22;8265;52.622;13.296;2023-01-04T05:58:06;3.90;90.00
16313;DHT22;8265;52.622;13.296;2023-01-04T06:03:27;4.00;89.70
16313;DHT22;8265;52.622;13.296;2023-01-04T06:08:48;3.90;89.80
16313;DHT22;8265;52.622;13.296;2023-01-04T06:14:09;4.00;89.80
16313;DHT22;8265;52.622;13.296;2023-01-04T06:19:30;4.00;89.80
16313;DHT22;8265;52.622;13.296;2023-01-04T06:24:51;4.00;89.60
16313;DHT22;8265;52.622;13.296;2023-01-04T06:30:12;4.10;89.40
16313;DHT22;8265;52.622;13.296;2023-01-04T06:35:33;4.00;89.70
16313;DHT22;8265;52.622;13.296;2023-01-04T06:40:54;4.00;89.60
16313;DHT22;8265;52.622;13.296;2023-01-04T06:46:15;4.10;89.50
16313;DHT22;8265;52.622;13.296;2023-01-04T06:51:36;4.20;89.00
16313;DHT22;8265;52.622;13.296;2023-01-04T06:56:57;4.30;88.90
16313;DHT22;8265;52.622;13.296;2023-01-04T07:02:18;4.50;88.00
16313;DHT22;8265;52.622;13.296;2023-01-04T07:07:39;4.50;88.00
16313;DHT22;8265;52.622;13.296;2023-01-04T07:13:00;4.50;88.40
16313;DHT22;8265;52.622;13.296;2023-01-04T07:18:21;4.50;89.50
16313;DHT22;8265;52.622;13.296;2023-01-04T07:23:42;4.50;89.80
16313;DHT22;8265;52.622;13.296;2023-01-04T07:29:18;4.50;91.20
16313;DHT22;8265;52.622;13.296;2023-01-04T07:34:38;4.50;92.50
16313;DHT22;8265;52.622;13.296;2023-01-04T07:39:59;4.40;94.30
16313;DHT22;8265;52.622;13.296;2023-01-04T07:45:20;4.30;95.70
16313;DHT22;8265;52.622;13.296;2023-01-04T07:50:41;4.30;96.50
16313;DHT22;8265;52.622;13.296;2023-01-04T07:56:02;4.30;96.80
16313;DHT22;8265;52.622;13.296;2023-01-04T08:01:24;4.40;97.60
16313;DHT22;8265;52.622;13.296;2023-01-04T08:06:44;4.40;97.80
16313;DHT22;8265;52.622;13.296;2023-01-04T08:12:05;4.50;98.40
16313;DHT22;8265;52.622;13.296;2023-01-04T08:17:26;4.50;99.00
16313;DHT22;8265;52.622;13.296;2023-01-04T08:22:47;4.50;99.30
16313;DHT22;8265;52.622;13.296;2023-01-04T08:28:08;4.60;99.70
16313;DHT22;8265;52.622;13.296;2023-01-04T08:33:29;4.70;99.90
16313;DHT22;8265;52.622;13.296;2023-01-04T08:38:50;4.70;99.90
16313;DHT22;8265;52.622;13.296;2023-01-04T08:44:11;4.70;99.90
16313;DHT22;8265;52.622;13.296;2023-01-04T08:49:32;4.90;99.90
16313;DHT22;8265;52.622;13.296;2023-01-04T08:54:53;4.90;99.90
16313;DHT22;8265;52.622;13.296;2023-01-04T09:00:14;5.00;99.90
16313;DHT22;8265;52.622;13.296;2023-01-04T09:05:35;5.00;99.90
16313;DHT22;8265;52.622;13.296;2023-01-04T09:10:56;5.00;99.90
16313;DHT22;8265;52.622;13.296;2023-01-04T09:16:17;5.10;99.90
16313;DHT22;8265;52.622;13.296;2023-01-04T09:21:38;5.10;99.90
16313;DHT22;8265;52.622;13.296;2023-01-04T09:26:59;5.20;99.90
16313;DHT22;8265;52.622;13.296;2023-01-04T09:32:20;5.30;99.90
16313;DHT22;8265;52.622;13.296;2023-01-04T09:37:41;5.30;99.90
16313;DHT22;8265;52.622;13.296;2023-01-04T09:43:02;5.40;99.90
16313;DHT22;8265;52.622;13.296;2023-01-04T09:48:23;5.40;99.90
16313;DHT22;8265;52.622;13.296;2023-01-04T09:53:48;5.50;99.90
16313;DHT22;8265;52.622;13.296;2023-01-04T09:59:06;5.50;99.90
16313;DHT22;8265;52.622;13.296;2023-01-04T10:04:48;5.50;99.90
16313;DHT22;8265;52.622;13.296;2023-01-04T10:09:47;5.50;99.90
16313;DHT22;8265;52.622;13.296;2023-01-04T10:15:13;5.50;99.90
16313;DHT22;8265;52.622;13.296;2023-01-04T10:36:31;5.70;99.90
16313;DHT22;8265;52.622;13.296;2023-01-04T10:41:54;5.80;99.90
16313;DHT22;8265;52.622;13.296;2023-01-04T10:52:48;5.80;99.90
16313;DHT22;8265;52.622;13.296;2023-01-04T10:58:01;5.90;99.90
16313;DHT22;8265;52.622;13.296;2023-01-04T11:03:21;5.90;99.90
16313;DHT22;8265;52.622;13.296;2023-01-04T11:08:45;5.90;99.90
16313;DHT22;8265;52.622;13.296;2023-01-04T11:13:58;5.90;99.90
16313;DHT22;8265;52.622;13.296;2023-01-04T11:19:19;6.00;99.90
16313;DHT22;8265;52.622;13.296;2023-01-04T11:24:41;6.00;99.90
16313;DHT22;8265;52.622;13.296;2023-01-04T11:30:08;6.00;99.90
16313;DHT22;8265;52.622;13.296;2023-01-04T11:56:59;6.30;99.90
16313;DHT22;8265;52.622;13.296;2023-01-04T12:02:23;6.30;99.90
16313;DHT22;8265;52.622;13.296;2023-01-04T12:07:29;6.40;99.90
16313;DHT22;8265;52.622;13.296;2023-01-04T12:12:49;6.40;99.90
16313;DHT22;8265;52.622;13.296;2023-01-04T12:18:21;6.40;99.90
16313;DHT22;8265;52.622;13.296;2023-01-04T12:23:32;6.50;99.90
16313;DHT22;8265;52.622;13.296;2023-01-04T12:44:56;6.60;99.90
16313;DHT22;8265;52.622;13.296;2023-01-04T12:50:22;6.60;99.90
16313;DHT22;8265;52.622;13.296;2023-01-04T13:06:19;6.70;99.90
16313;DHT22;8265;52.622;13.296;2023-01-04T13:12:07;6.70;99.90
16313;DHT22;8265;52.622;13.296;2023-01-04T13:17:22;6.80;99.90
16313;DHT22;8265;52.622;13.296;2023-01-04T13:22:26;6.80;99.90
16313;DHT22;8265;52.622;13.296;2023-01-04T13:27:56;6.80;99.90
16313;DHT22;8265;52.622;13.296;2023-01-04T13:33:14;6.90;99.90
16313;DHT22;8265;52.622;13.296;2023-01-04T13:38:25;6.80;99.90
16313;DHT22;8265;52.622;13.296;2023-01-04T13:43:57;6.90;99.90
16313;DHT22;8265;52.622;13.296;2023-01-04T13:49:07;6.90;99.90
16313;DHT22;8265;52.622;13.296;2023-01-04T13:54:28;7.00;99.90
16313;DHT22;8265;52.622;13.296;2023-01-04T13:59:49;7.00;99.90
16313;DHT22;8265;52.622;13.296;2023-01-04T14:05:15;7.00;99.90
16313;DHT22;8265;52.622;13.296;2023-01-04T14:10:31;7.00;99.90
16313;DHT22;8265;52.622;13.296;2023-01-04T14:16:05;7.00;99.90
16313;DHT22;8265;52.622;13.296;2023-01-04T14:21:14;7.00;99.90
16313;DHT22;8265;52.622;13.296;2023-01-04T14:26:34;7.10;99.90
16313;DHT22;8265;52.622;13.296;2023-01-04T14:31:55;7.10;99.90
16313;DHT22;8265;52.622;13.296;2023-01-04T14:37:16;7.20;99.90
16313;DHT22;8265;52.622;13.296;2023-01-04T14:42:37;7.20;99.90
16313;DHT22;8265;52.622;13.296;2023-01-04T14:47:58;7.20;99.90
16313;DHT22;8265;52.622;13.296;2023-01-04T14:53:18;7.20;99.90
16313;DHT22;8265;52.622;13.296;2023-01-04T14:58:39;7.40;99.90
16313;DHT22;8265;52.622;13.296;2023-01-04T15:04:01;7.40;99.90
16313;DHT22;8265;52.622;13.296;2023-01-04T15:09:21;7.50;99.90
16313;DHT22;8265;52.622;13.296;2023-01-04T15:14:42;7.50;99.90
16313;DHT22;8265;52.622;13.296;2023-01-04T15:20:04;7.50;99.90
16313;DHT22;8265;52.622;13.296;2023-01-04T15:25:24;7.50;99.90
16313;DHT22;8265;52.622;13.296;2023-01-04T15:30:45;7.50;99.90
16313;DHT22;8265;52.622;13.296;2023-01-04T15:36:10;7.60;99.90
16313;DHT22;8265;52.622;13.296;2023-01-04T15:41:27;7.60;99.90
16313;DHT22;8265;52.622;13.296;2023-01-04T15:46:48;7.50;99.90
16313;DHT22;8265;52.622;13.296;2023-01-04T15:52:09;7.50;99.90
16313;DHT22;8265;52.622;13.296;2023-01-04T15:57:30;7.50;99.90
16313;DHT22;8265;52.622;13.296;2023-01-04T16:02:51;7.60;99.90
16313;DHT22;8265;52.622;13.296;2023-01-04T16:08:12;7.60;99.90
16313;DHT22;8265;52.622;13.296;2023-01-04T16:13:33;7.80;99.90
16313;DHT22;8265;52.622;13.296;2023-01-04T16:18:55;7.80;99.90
16313;DHT22;8265;52.622;13.296;2023-01-04T16:24:15;7.80;99.90
16313;DHT22;8265;52.622;13.296;2023-01-04T16:29:36;7.80;99.90
16313;DHT22;8265;52.622;13.296;2023-01-04T16:34:57;7.80;99.90
16313;DHT22;8265;52.622;13.296;2023-01-04T16:40:18;7.80;99.90
16313;DHT22;8265;52.622;13.296;2023-01-04T16:45:39;7.80;99.90
16313;DHT22;8265;52.622;13.296;2023-01-04T16:51:00;7.80;99.90
16313;DHT22;8265;52.622;13.296;2023-01-04T16:56:21;8.00;99.90
16313;DHT22;8265;52.622;13.296;2023-01-04T17:01:42;8.00;99.90
16313;DHT22;8265;52.622;13.296;2023-01-04T17:07:03;8.00;99.90
16313;DHT22;8265;52.622;13.296;2023-01-04T17:12:23;8.10;99.90
16313;DHT22;8265;52.622;13.296;2023-01-04T17:17:44;8.10;99.90
16313;DHT22;8265;52.622;13.296;2023-01-04T17:23:05;8.20;99.90
16313;DHT22;8265;52.622;13.296;2023-01-04T17:28:26;8.20;99.90
16313;DHT22;8265;52.622;13.296;2023-01-04T17:33:48;8.40;99.30
16313;DHT22;8265;52.622;13.296;2023-01-04T17:39:08;8.40;98.80
16313;DHT22;8265;52.622;13.296;2023-01-04T17:44:29;8.50;98.20
16313;DHT22;8265;52.622;13.296;2023-01-04T17:50:00;8.50;98.00
16313;DHT22;8265;52.622;13.296;2023-01-04T17:55:21;8.60;97.30
16313;DHT22;8265;52.622;13.296;2023-01-04T18:00:42;8.70;97.30
16313;DHT22;8265;52.622;13.296;2023-01-04T18:06:03;8.60;98.10
16313;DHT22;8265;52.622;13.296;2023-01-04T18:11:24;8.60;97.50
16313;DHT22;8265;52.622;13.296;2023-01-04T18:16:45;8.70;97.20
16313;DHT22;8265;52.622;13.296;2023-01-04T18:22:06;8.80;96.60
16313;DHT22;8265;52.622;13.296;2023-01-04T18:27:27;8.80;96.40
16313;DHT22;8265;52.622;13.296;2023-01-04T18:32:48;8.80;96.80
16313;DHT22;8265;52.622;13.296;2023-01-04T18:38:09;8.80;96.30
16313;DHT22;8265;52.622;13.296;2023-01-04T18:43:30;9.00;95.40
16313;DHT22;8265;52.622;13.296;2023-01-04T18:48:51;9.00;95.20
16313;DHT22;8265;52.622;13.296;2023-01-04T18:54:12;9.00;95.20
16313;DHT22;8265;52.622;13.296;2023-01-04T18:59:33;9.00;95.40
16313;DHT22;8265;52.622;13.296;2023-01-04T19:04:54;8.90;95.20
16313;DHT22;8265;52.622;13.296;2023-01-04T19:10:15;9.00;95.10
16313;DHT22;8265;52.622;13.296;2023-01-04T19:15:36;9.00;94.80
16313;DHT22;8265;52.622;13.296;2023-01-04T19:20:59;9.00;94.90
16313;DHT22;8265;52.622;13.296;2023-01-04T19:26:18;9.00;95.50
16313;DHT22;8265;52.622;13.296;2023-01-04T19:31:38;9.00;95.30
16313;DHT22;8265;52.622;13.296;2023-01-04T19:36:59;9.00;94.90
16313;DHT22;8265;52.622;13.296;2023-01-04T19:42:20;9.00;94.80
16313;DHT22;8265;52.622;13.296;2023-01-04T19:47:41;9.00;95.00
16313;DHT22;8265;52.622;13.296;2023-01-04T19:53:02;9.00;95.40
16313;DHT22;8265;52.622;13.296;2023-01-04T19:58:23;9.00;96.30
16313;DHT22;8265;52.622;13.296;2023-01-04T20:03:44;8.80;97.30
16313;DHT22;8265;52.622;13.296;2023-01-04T20:09:05;9.00;96.50
16313;DHT22;8265;52.622;13.296;2023-01-04T20:14:26;9.00;96.40
16313;DHT22;8265;52.622;13.296;2023-01-04T20:19:47;8.80;99.00
16313;DHT22;8265;52.622;13.296;2023-01-04T20:25:08;8.80;99.90
16313;DHT22;8265;52.622;13.296;2023-01-04T20:30:29;8.80;99.90
16313;DHT22;8265;52.622;13.296;2023-01-04T20:35:50;8.60;99.90
16313;DHT22;8265;52.622;13.296;2023-01-04T20:41:13;8.60;99.90
16313;DHT22;8265;52.622;13.296;2023-01-04T20:46:32;8.80;99.90
16313;DHT22;8265;52.622;13.296;2023-01-04T20:51:53;8.80;99.90
16313;DHT22;8265;52.622;13.296;2023-01-04T20:57:14;8.80;99.90
16313;DHT22;8265;52.622;13.296;2023-01-04T21:02:36;8.60;99.90
16313;DHT22;8265;52.622;13.296;2023-01-04T21:07:56;8.60;99.90
16313;DHT22;8265;52.622;13.296;2023-01-04T21:13:17;8.50;99.90
16313;DHT22;8265;52.622;13.296;2023-01-04T21:18:38;8.50;99.90
16313;DHT22;8265;52.622;13.296;2023-01-04T21:23:59;8.50;99.90
16313;DHT22;8265;52.622;13.296;2023-01-04T21:29:20;8.50;99.90
16313;DHT22;8265;52.622;13.296;2023-01-04T21:34:41;8.50;99.90
16313;DHT22;8265;52.622;13.296;2023-01-04T21:40:02;8.60;99.90
16313;DHT22;8265;52.622;13.296;2023-01-04T21:45:26;8.70;99.90
16313;DHT22;8265;52.622;13.296;2023-01-04T21:50:44;8.80;99.90
16313;DHT22;8265;52.622;13.296;2023-01-04T21:56:06;8.80;99.90
16313;DHT22;8265;52.622;13.296;2023-01-04T22:01:26;8.70;99.90
16313;DHT22;8265;52.622;13.296;2023-01-04T22:06:47;8.60;99.90
16313;DHT22;8265;52.622;13.296;2023-01-04T22:12:08;8.60;99.90
16313;DHT22;8265;52.622;13.296;2023-01-04T22:17:29;8.60;99.90
16313;DHT22;8265;52.622;13.296;2023-01-04T22:22:50;8.60;99.90
16313;DHT22;8265;52.622;13.296;2023-01-04T22:28:14;8.60;99.90
16313;DHT22;8265;52.622;13.296;2023-01-04T22:33:33;8.60;99.90
16313;DHT22;8265;52.622;13.296;2023-01-04T22:38:54;8.60;99.90
16313;DHT22;8265;52.622;13.296;2023-01-04T22:44:14;8.60;99.20
16313;DHT22;8265;52.622;13.296;2023-01-04T22:49:35;8.50;99.50
16313;DHT22;8265;52.622;13.296;2023-01-04T22:54:56;8.60;98.90
16313;DHT22;8265;52.622;13.296;2023-01-04T23:00:17;8.60;98.40
16313;DHT22;8265;52.622;13.296;2023-01-04T23:05:38;8.60;97.90
16313;DHT22;8265;52.622;13.296;2023-01-04T23:11:06;8.70;98.00
16313;DHT22;8265;52.622;13.296;2023-01-04T23:16:20;8.60;98.60
16313;DHT22;8265;52.622;13.296;2023-01-04T23:21:41;8.60;99.20
16313;DHT22;8265;52.622;13.296;2023-01-04T23:27:02;8.60;99.10
16313;DHT22;8265;52.622;13.296;2023-01-04T23:32:23;8.60;99.30
16313;DHT22;8265;52.622;13.296;2023-01-04T23:37:46;8.50;99.40
16313;DHT22;8265;52.622;13.296;2023-01-04T23:43:05;8.50;99.40
16313;DHT22;8265;52.622;13.296;2023-01-04T23:48:26;8.50;99.70
16313;DHT22;8265;52.622;13.296;2023-01-04T23:53:47;8.40;99.40
16313;DHT22;8265;52.622;13.296;2023-01-04T23:59:08;8.50;99.00
